Time;durP1;ratioP1;P1;durP2;ratioP2;P2;SDS_P1;SDS_P2;PMS_P1;PMS_P2;Temp;Humidity;BMP_temperature;BMP_pressure;BME280_temperature;BME280_humidity;BME280_pressure;Samples;Min_cycle;Max_cycle;Signal;HPM_P1;HPM_P2
2023/03/04 00:01:36;;;;;;;49.72;27.00;;;;;;;1.54;97.65;99761.22;5052650;28;20478;-75
2023/03/04 00:04:01;;;;;;;52.15;28.92;;;;;;;1.57;97.56;99738.09;5052337;28;20436;-75
2023/03/04 00:06:26;;;;;;;52.50;27.15;;;;;;;1.60;97.09;99739.78;5052710;28;20430;-75
2023/03/04 00:08:52;;;;;;;52.47;27.60;;;;;;;1.44;97.02;99710.84;5052344;28;20021;-75
2023/03/04 00:11:17;;;;;;;52.22;29.05;;;;;;;1.62;97.77;99732.94;5052549;28;20163;-75
2023/03/04 00:13:42;;;;;;;48.35;25.83;;;;;;;1.32;97.46;99690.41;5052497;28;20108;-75
2023/03/04 00:16:07;;;;;;;48.08;28.00;;;;;;;1.59;97.11;99717.53;5052260;28;20053;-75
2023/03/04 00:18:33;;;;;;;52.92;28.33;;;;;;;1.53;97.05;99689.38;5052218;28;20112;-75
2023/03/04 00:20:58;;;;;;;55.55;27.65;;;;;;;1.68;97.08;99712.31;5052233;28;20028;-75
2023/03/04 00:23:23;;;;;;;53.95;29.02;;;;;;;1.52;96.92;99685.09;5052224;28;20032;-75
2023/03/04 00:25:49;;;;;;;51.72;26.23;;;;;;;1.45;97.38;99674.88;5052009;28;20074;-75
2023/03/04 00:28:14;;;;;;;52.95;28.40;;;;;;;1.48;97.03;99671.47;5052101;28;20021;-75
2023/03/04 00:30:40;;;;;;;55.13;28.42;;;;;;;1.60;97.70;99688.44;5052116;28;20108;-75
2023/03/04 00:33:05;;;;;;;54.92;28.67;;;;;;;1.62;97.45;99695.25;5051819;28;20464;-75
2023/03/04 00:35:30;;;;;;;47.95;26.50;;;;;;;1.65;97.31;99699.53;5052507;28;20036;-75
2023/03/04 00:37:55;;;;;;;58.03;28.58;;;;;;;1.60;97.35;99691.00;5051763;28;20440;-75
2023/03/04 00:40:21;;;;;;;53.72;28.73;;;;;;;1.53;97.60;99667.13;5052063;28;20658;-75
2023/03/04 00:42:46;;;;;;;51.22;27.83;;;;;;;1.54;97.96;99660.28;5051769;28;20017;-75
2023/03/04 00:45:11;;;;;;;48.67;25.52;;;;;;;1.54;97.71;99658.53;5051991;28;20020;-75
2023/03/04 00:47:37;;;;;;;50.15;26.67;;;;;;;1.58;97.67;99659.38;5051784;28;20098;-75
2023/03/04 00:50:03;;;;;;;47.90;27.33;;;;;;;1.71;97.59;99686.63;5051829;28;20025;-75
2023/03/04 00:52:28;;;;;;;49.55;25.52;;;;;;;1.48;97.96;99648.34;5052335;28;20043;-76
2023/03/04 00:54:53;;;;;;;48.78;25.60;;;;;;;1.58;97.69;99673.06;5051760;28;20025;-76
2023/03/04 00:57:19;;;;;;;52.10;25.75;;;;;;;1.53;97.60;99668.84;5051750;28;20484;-76
2023/03/04 00:59:45;;;;;;;49.88;25.38;;;;;;;1.68;97.54;99684.91;5050624;28;20074;-75
2023/03/04 01:02:11;;;;;;;53.67;25.65;;;;;;;1.50;97.58;99649.16;5051676;28;20035;-76
2023/03/04 01:04:37;;;;;;;48.90;26.10;;;;;;;1.60;97.55;99680.72;5051907;28;20056;-76
2023/03/04 01:07:02;;;;;;;50.78;26.13;;;;;;;1.68;97.39;99672.09;5051616;28;20025;-76
2023/03/04 01:09:27;;;;;;;45.92;25.65;;;;;;;1.45;97.65;99638.09;5051638;28;20036;-76
2023/03/04 01:11:53;;;;;;;51.40;26.13;;;;;;;1.65;97.24;99666.16;5051728;28;20036;-76
2023/03/04 01:14:18;;;;;;;49.20;25.95;;;;;;;1.55;97.49;99637.13;5051633;28;20106;-76
2023/03/04 01:16:44;;;;;;;47.65;26.38;;;;;;;1.71;97.21;99646.38;5051440;28;20071;-76
2023/03/04 01:19:09;;;;;;;48.72;26.23;;;;;;;1.73;96.81;99652.38;5050197;28;20040;-76
2023/03/04 01:21:34;;;;;;;47.75;25.75;;;;;;;1.59;96.79;99609.72;5051687;28;20021;-76
2023/03/04 01:24:00;;;;;;;46.83;25.63;;;;;;;1.75;96.48;99639.50;5051283;28;20025;-76
2023/03/04 01:26:25;;;;;;;51.08;27.92;;;;;;;1.68;96.55;99619.88;5051471;28;20029;-76
2023/03/04 01:28:51;;;;;;;53.38;27.70;;;;;;;1.72;95.79;99608.72;5051236;28;20067;-76
2023/03/04 01:31:16;;;;;;;56.15;28.15;;;;;;;1.85;95.88;99623.09;5051336;28;20024;-76
2023/03/04 01:33:41;;;;;;;53.30;28.15;;;;;;;1.74;95.96;99597.56;5051631;28;20453;-76
2023/03/04 01:36:07;;;;;;;50.97;27.75;;;;;;;1.67;95.70;99585.66;5051154;28;20531;-76
2023/03/04 01:38:32;;;;;;;48.38;25.20;;;;;;;1.74;95.66;99602.72;5051518;28;20448;-76
2023/03/04 01:40:57;;;;;;;52.85;28.30;;;;;;;1.61;95.31;99578.03;5051230;28;20050;-76
2023/03/04 01:43:28;;;;;;;47.78;27.65;;;;;;;1.64;95.24;99572.00;5051433;28;20056;-76
2023/03/04 01:45:56;;;;;;;52.97;29.52;;;;;;;1.57;95.35;99568.69;5050976;28;20431;-76
2023/03/04 01:48:25;;;;;;;52.90;28.95;;;;;;;1.58;95.06;99582.38;5050116;28;20063;-76
2023/03/04 01:50:51;;;;;;;49.67;27.60;;;;;;;1.58;95.29;99583.22;5050965;28;20048;-76
2023/03/04 01:53:22;;;;;;;57.15;29.20;;;;;;;1.67;94.61;99590.81;5050014;28;20461;-76
2023/03/04 01:55:48;;;;;;;52.28;28.55;;;;;;;1.71;94.67;99589.06;5051007;28;20021;-76
2023/03/04 01:58:14;;;;;;;53.38;28.15;;;;;;;1.50;94.67;99570.44;5051148;28;20036;-76
2023/03/04 02:00:39;;;;;;;49.83;28.45;;;;;;;1.75;94.43;99611.25;5051144;28;20384;-76
2023/03/04 02:03:12;;;;;;;52.25;29.25;;;;;;;1.68;93.91;99591.66;5051150;28;20167;-76
2023/03/04 02:05:41;;;;;;;52.80;28.42;;;;;;;1.76;93.83;99602.69;5051155;28;20048;-76
2023/03/04 02:08:08;;;;;;;48.28;27.38;;;;;;;1.50;93.76;99562.75;5051012;28;20033;-76
2023/03/04 02:10:34;;;;;;;46.42;28.38;;;;;;;1.78;93.86;99602.69;5052352;28;20037;-76
2023/03/04 02:13:00;;;;;;;49.33;27.65;;;;;;;1.62;93.90;99573.75;5054518;28;20025;-76
2023/03/04 02:15:26;;;;;;;47.58;29.48;;;;;;;1.62;93.77;99582.31;5054800;28;20099;-76
2023/03/04 02:17:51;;;;;;;44.08;27.13;;;;;;;1.53;93.43;99581.56;5054557;28;20104;-76
2023/03/04 02:20:29;;;;;;;45.10;26.20;;;;;;;1.74;93.46;99594.16;5054762;28;20027;-76
2023/03/04 02:23:29;;;;;;;49.10;26.92;;;;;;;1.65;93.19;99602.81;5054337;28;20100;-76
2023/03/04 02:26:12;;;;;;;43.88;26.83;;;;;;;1.57;93.60;99598.63;5054579;28;20049;-76
2023/03/04 02:28:38;;;;;;;44.67;27.38;;;;;;;1.51;93.29;99571.31;5054516;28;20032;-76
2023/03/04 02:31:04;;;;;;;48.05;26.60;;;;;;;1.54;93.10;99580.69;5052990;28;20086;-76
2023/03/04 02:33:29;;;;;;;41.05;25.55;;;;;;;1.63;92.91;99578.03;5054480;28;20468;-76
2023/03/04 02:35:55;;;;;;;44.85;27.17;;;;;;;1.72;93.15;99577.91;5054100;28;20069;-76
2023/03/04 02:38:20;;;;;;;42.10;27.25;;;;;;;1.74;92.76;99581.31;5054545;28;20028;-76
2023/03/04 02:40:49;;;;;;;42.42;26.85;;;;;;;1.64;92.79;99557.44;5054354;28;20032;-76
2023/03/04 02:43:15;;;;;;;45.75;28.83;;;;;;;1.63;92.73;99560.91;5053926;28;20032;-76
2023/03/04 02:45:40;;;;;;;41.92;28.02;;;;;;;1.80;92.72;99573.53;5054171;28;20031;-76
2023/03/04 02:48:07;;;;;;;42.50;27.65;;;;;;;1.82;92.99;99566.69;5053919;28;20044;-76
2023/03/04 02:50:42;;;;;;;43.92;26.92;;;;;;;1.71;92.48;99564.22;5053952;28;20037;-76
2023/03/04 02:53:08;;;;;;;43.20;26.75;;;;;;;1.59;92.26;99540.41;5053902;28;20574;-76
2023/03/04 02:55:33;;;;;;;43.40;28.23;;;;;;;1.60;92.72;99544.69;5053913;28;20187;-76
2023/03/04 02:57:58;;;;;;;40.47;25.77;;;;;;;1.68;92.16;99558.28;5053682;28;20065;-76
2023/03/04 03:00:25;;;;;;;42.90;26.70;;;;;;;1.68;92.07;99548.00;5053829;28;20032;-76
2023/03/04 03:02:50;;;;;;;36.25;22.35;;;;;;;1.72;92.09;99568.47;5053823;28;20360;-76
2023/03/04 03:05:16;;;;;;;40.47;25.58;;;;;;;1.80;92.00;99560.69;5053468;28;20029;-76
2023/03/04 03:07:41;;;;;;;39.38;24.35;;;;;;;1.66;91.54;99530.06;5053880;28;20025;-76
2023/03/04 03:10:07;;;;;;;42.03;25.13;;;;;;;1.63;91.34;99530.09;5053618;28;20488;-76
2023/03/04 03:12:32;;;;;;;34.58;21.08;;;;;;;1.57;91.40;99525.03;5053664;28;20488;-76
2023/03/04 03:14:57;;;;;;;35.05;21.98;;;;;;;1.64;90.92;99530.94;5053496;28;20025;-76
2023/03/04 03:17:23;;;;;;;33.75;20.92;;;;;;;1.60;91.03;99524.13;5053615;28;20057;-76
2023/03/04 03:19:48;;;;;;;27.90;19.85;;;;;;;1.73;90.51;99548.81;5053839;28;20037;-76
2023/03/04 03:22:13;;;;;;;33.45;20.60;;;;;;;1.81;90.20;99558.97;5052492;28;20029;-76
2023/03/04 03:24:38;;;;;;;33.05;20.90;;;;;;;1.62;90.41;99525.84;5053536;28;20041;-76
2023/03/04 03:27:04;;;;;;;35.08;20.50;;;;;;;1.81;90.46;99553.84;5051966;28;20036;-76
2023/03/04 03:29:29;;;;;;;32.08;20.83;;;;;;;1.71;90.42;99527.44;5053286;28;20021;-76
2023/03/04 03:31:55;;;;;;;32.50;21.80;;;;;;;1.75;90.28;99523.97;5053060;28;20025;-76
2023/03/04 03:34:21;;;;;;;34.47;22.67;;;;;;;1.57;90.28;99495.97;5053203;28;20032;-76
2023/03/04 03:36:46;;;;;;;36.63;22.73;;;;;;;1.75;90.04;99513.69;5053644;28;20387;-76
2023/03/04 03:39:11;;;;;;;33.38;22.38;;;;;;;1.67;90.48;99510.38;5053040;28;20025;-76
2023/03/04 03:41:37;;;;;;;38.15;24.63;;;;;;;1.66;90.71;99490.69;5053206;28;20377;-76
2023/03/04 03:44:02;;;;;;;37.60;22.48;;;;;;;1.82;90.44;99510.19;5052794;28;20103;-76
2023/03/04 03:46:28;;;;;;;41.08;25.50;;;;;;;1.86;90.16;99519.53;5053055;28;20122;-76
2023/03/04 03:48:54;;;;;;;45.28;28.45;;;;;;;1.89;90.15;99519.47;5052651;28;20028;-76
2023/03/04 03:51:19;;;;;;;47.30;27.75;;;;;;;1.52;90.26;99460.09;5053093;28;20084;-76
2023/03/04 03:53:44;;;;;;;42.05;26.25;;;;;;;1.88;90.10;99504.94;5052540;28;20079;-76
2023/03/04 03:56:10;;;;;;;48.00;29.67;;;;;;;1.68;90.25;99473.53;5052657;28;20075;-76
2023/03/04 03:58:35;;;;;;;45.55;28.70;;;;;;;1.89;89.99;99493.78;5052691;28;20028;-76
2023/03/04 04:01:00;;;;;;;45.45;27.17;;;;;;;1.82;90.20;99504.19;5052503;28;20021;-76
2023/03/04 04:03:25;;;;;;;45.20;28.73;;;;;;;1.81;89.88;99494.78;5052559;28;20032;-75
2023/03/04 04:05:51;;;;;;;47.60;29.67;;;;;;;1.93;89.98;99505.72;5052770;28;20075;-76
2023/03/04 04:08:16;;;;;;;49.85;29.25;;;;;;;1.74;89.88;99491.44;5052332;28;20048;-76
2023/03/04 04:10:42;;;;;;;44.95;28.30;;;;;;;1.87;89.79;99504.97;5052894;28;20109;-76
2023/03/04 04:13:08;;;;;;;46.45;28.70;;;;;;;1.78;90.25;99487.13;5052288;28;20032;-76
2023/03/04 04:15:33;;;;;;;48.47;28.70;;;;;;;1.85;90.13;99487.00;5052360;28;20396;-75
2023/03/04 04:17:58;;;;;;;43.25;26.77;;;;;;;1.81;90.13;99490.47;5052089;28;20025;-76
2023/03/04 04:20:23;;;;;;;45.85;27.65;;;;;;;1.79;90.47;99488.81;5052491;28;20029;-76
2023/03/04 04:22:49;;;;;;;45.47;26.70;;;;;;;1.88;89.90;99499.81;5052443;28;20021;-76
2023/03/04 04:25:15;;;;;;;42.00;26.73;;;;;;;1.81;90.02;99471.66;5052050;28;20037;-76
2023/03/04 04:27:40;;;;;;;42.88;26.70;;;;;;;1.92;89.53;99490.34;5052663;28;20025;-76
2023/03/04 04:30:07;;;;;;;44.88;27.52;;;;;;;1.93;89.93;99474.06;5051954;28;20029;-76
2023/03/04 04:32:32;;;;;;;44.80;26.90;;;;;;;1.99;89.72;99474.84;5052017;28;20024;-76
2023/03/04 04:34:58;;;;;;;45.03;27.42;;;;;;;2.00;89.62;99468.81;5051838;28;20579;-76
2023/03/04 04:37:23;;;;;;;47.20;27.75;;;;;;;1.84;89.42;99445.94;5052197;28;20024;-76
2023/03/04 04:39:50;;;;;;;43.10;26.05;;;;;;;1.74;89.48;99429.84;5052073;28;20036;-76
2023/03/04 04:42:16;;;;;;;47.00;27.63;;;;;;;1.84;89.37;99436.53;5051836;28;20025;-76
2023/03/04 04:44:41;;;;;;;40.75;24.85;;;;;;;1.99;89.39;99462.00;5051894;28;20025;-76
2023/03/04 04:47:06;;;;;;;44.40;26.35;;;;;;;1.82;89.55;99452.84;5051591;28;20017;-76
2023/03/04 04:49:32;;;;;;;37.15;23.77;;;;;;;1.81;89.63;99440.84;5051963;28;20021;-76
2023/03/04 04:51:57;;;;;;;42.70;25.63;;;;;;;1.68;89.52;99412.78;5052009;28;20125;-76
2023/03/04 04:54:23;;;;;;;43.13;24.95;;;;;;;1.90;89.59;99446.72;5051955;28;20033;-76
2023/03/04 04:56:49;;;;;;;41.88;26.73;;;;;;;1.86;89.11;99451.94;5051890;28;20108;-76
2023/03/04 04:59:14;;;;;;;40.47;24.90;;;;;;;1.73;89.20;99431.56;5051577;28;20060;-75
2023/03/04 05:01:40;;;;;;;37.30;23.33;;;;;;;1.73;89.44;99435.84;5051716;28;20032;-76
2023/03/04 05:04:05;;;;;;;37.85;24.70;;;;;;;1.91;89.31;99468.13;5051343;28;20029;-76
2023/03/04 05:06:30;;;;;;;41.63;25.15;;;;;;;1.89;89.51;99462.97;5051875;28;20025;-76
2023/03/04 05:08:56;;;;;;;39.58;23.25;;;;;;;1.80;88.94;99439.16;5051817;28;20025;-76
2023/03/04 05:11:21;;;;;;;41.33;24.75;;;;;;;1.86;89.12;99446.78;5051480;28;20017;-76
2023/03/04 05:13:47;;;;;;;37.95;23.80;;;;;;;1.96;88.94;99464.59;5051629;28;20025;-76
2023/03/04 05:16:14;;;;;;;39.08;25.05;;;;;;;1.98;89.14;99456.84;5051122;28;20057;-76
2023/03/04 05:18:39;;;;;;;38.42;24.13;;;;;;;2.04;88.96;99466.22;5051782;28;20045;-76
2023/03/04 05:21:05;;;;;;;37.58;22.55;;;;;;;1.98;88.77;99459.41;5051485;28;20077;-76
2023/03/04 05:23:34;;;;;;;36.50;23.77;;;;;;;1.92;88.80;99442.41;5051545;28;20082;-76
2023/03/04 05:26:00;;;;;;;37.10;23.05;;;;;;;1.97;88.70;99457.72;5051478;28;20128;-76
2023/03/04 05:28:25;;;;;;;41.80;23.83;;;;;;;2.13;88.64;99466.06;5051393;28;20036;-76
2023/03/04 05:30:51;;;;;;;42.38;24.00;;;;;;;1.94;88.46;99440.66;5051404;28;20037;-76
2023/03/04 05:33:17;;;;;;;36.78;23.15;;;;;;;2.09;88.77;99469.56;5051099;28;20021;-76
2023/03/04 05:35:43;;;;;;;37.75;22.88;;;;;;;2.06;88.54;99456.75;5051571;28;20037;-76
2023/03/04 05:38:12;;;;;;;40.20;23.60;;;;;;;2.03;88.78;99459.38;5051132;28;20025;-76
2023/03/04 05:40:39;;;;;;;37.85;23.65;;;;;;;2.08;88.46;99449.88;5051421;28;20037;-76
2023/03/04 05:43:05;;;;;;;37.50;23.60;;;;;;;2.04;88.47;99466.22;5051171;28;20036;-76
2023/03/04 05:45:30;;;;;;;36.58;23.48;;;;;;;2.07;88.83;99467.03;5052575;28;20385;-76
2023/03/04 05:47:56;;;;;;;37.00;23.08;;;;;;;1.94;88.54;99435.53;5055503;28;20096;-75
2023/03/04 05:50:22;;;;;;;38.33;23.95;;;;;;;2.04;88.31;99451.63;5055099;28;20064;-76
2023/03/04 05:52:48;;;;;;;37.70;23.00;;;;;;;2.22;88.13;99481.34;5055105;28;20021;-76
2023/03/04 05:55:14;;;;;;;39.22;23.98;;;;;;;2.09;88.20;99462.69;5054966;28;20033;-76
2023/03/04 05:57:40;;;;;;;38.95;22.77;;;;;;;2.23;88.03;99476.19;5055112;28;20082;-76
2023/03/04 06:00:09;;;;;;;42.95;23.85;;;;;;;2.12;88.21;99459.25;5054777;28;20111;-76
2023/03/04 06:02:36;;;;;;;33.25;21.77;;;;;;;2.08;87.81;99449.88;5055173;28;20078;-76
2023/03/04 06:05:02;;;;;;;31.58;20.95;;;;;;;2.11;88.00;99442.13;5055109;28;20036;-76
2023/03/04 06:07:28;;;;;;;35.58;21.92;;;;;;;2.18;88.07;99454.84;5054946;28;20465;-76
2023/03/04 06:09:53;;;;;;;41.33;22.63;;;;;;;2.05;88.38;99445.63;5054823;28;20021;-76
2023/03/04 06:12:19;;;;;;;42.47;23.70;;;;;;;1.96;88.71;99441.47;5054569;28;20108;-76
2023/03/04 06:14:44;;;;;;;42.88;21.58;;;;;;;2.04;88.63;99458.50;5054641;28;20121;-76
2023/03/04 06:17:09;;;;;;;37.53;22.70;;;;;;;2.20;88.70;99467.69;5054614;28;20100;-76
2023/03/04 06:19:36;;;;;;;35.58;21.48;;;;;;;2.19;88.63;99459.13;5054808;28;20040;-76
2023/03/04 06:22:02;;;;;;;38.20;21.38;;;;;;;2.32;88.55;99475.19;5054709;28;20027;-76
2023/03/04 06:24:28;;;;;;;36.63;19.98;;;;;;;2.14;88.50;99445.47;5054146;28;20400;-76
2023/03/04 06:26:53;;;;;;;39.67;21.70;;;;;;;2.11;88.63;99455.81;5054532;28;20035;-76
2023/03/04 06:29:19;;;;;;;37.05;21.20;;;;;;;2.10;88.49;99448.97;5054076;28;20184;-76
2023/03/04 06:31:44;;;;;;;42.90;22.85;;;;;;;2.10;88.65;99448.97;5054562;28;20028;-76
2023/03/04 06:34:09;;;;;;;42.92;23.67;;;;;;;2.15;88.53;99451.47;5054096;28;20480;-76
2023/03/04 06:36:35;;;;;;;37.22;21.92;;;;;;;2.29;88.88;99472.66;5054457;28;20075;-76
2023/03/04 06:39:05;;;;;;;34.63;20.90;;;;;;;2.28;88.83;99457.28;5054356;28;20671;-76
2023/03/04 06:41:31;;;;;;;34.42;21.40;;;;;;;2.36;88.86;99471.69;5054221;28;20025;-76
2023/03/04 06:43:56;;;;;;;36.15;21.38;;;;;;;2.33;88.73;99476.03;5054116;28;20027;-76
2023/03/04 06:46:22;;;;;;;37.33;23.38;;;;;;;2.23;89.06;99454.75;5054106;28;20115;-76
2023/03/04 06:48:47;;;;;;;37.85;22.05;;;;;;;2.29;89.03;99457.25;5054190;28;20040;-76
2023/03/04 06:51:13;;;;;;;36.28;19.58;;;;;;;2.25;89.39;99469.28;5052746;28;20029;-76
2023/03/04 06:53:39;;;;;;;35.05;20.45;;;;;;;2.38;89.56;99484.53;5054188;28;20033;-76
2023/03/04 06:56:05;;;;;;;35.97;21.52;;;;;;;2.44;89.58;99472.44;5053980;28;20029;-76
2023/03/04 06:58:31;;;;;;;41.42;24.80;;;;;;;2.30;89.50;99447.81;5053937;28;20025;-75
2023/03/04 07:00:56;;;;;;;41.92;23.73;;;;;;;2.41;89.73;99469.06;5054067;28;20032;-76
2023/03/04 07:03:22;;;;;;;53.03;27.50;;;;;;;2.27;90.45;99465.84;5054027;28;20029;-76
2023/03/04 07:05:47;;;;;;;44.33;25.02;;;;;;;2.45;90.51;99497.25;5053872;28;20024;-76
2023/03/04 07:08:14;;;;;;;46.58;24.95;;;;;;;2.47;90.66;99489.50;5053590;28;20111;-76
2023/03/04 07:10:39;;;;;;;52.00;28.98;;;;;;;2.43;90.88;99472.44;5053737;28;20025;-76
2023/03/04 07:13:05;;;;;;;41.78;23.40;;;;;;;2.46;90.74;99462.13;5053584;28;20534;-76
2023/03/04 07:15:30;;;;;;;45.95;23.40;;;;;;;2.54;91.14;99490.28;5053513;28;20060;-76
2023/03/04 07:17:56;;;;;;;40.00;22.50;;;;;;;2.46;91.03;99465.53;5053649;28;20079;-76
2023/03/04 07:20:21;;;;;;;46.70;24.95;;;;;;;2.56;91.65;99483.38;5053365;28;20376;-76
2023/03/04 07:22:47;;;;;;;41.45;24.00;;;;;;;2.65;91.81;99496.91;5053555;28;20469;-76
2023/03/04 07:25:12;;;;;;;42.95;23.58;;;;;;;2.47;92.02;99472.34;5053432;28;20049;-76
2023/03/04 07:27:39;;;;;;;44.47;23.35;;;;;;;2.47;92.27;99472.34;5053442;28;20052;-76
2023/03/04 07:30:05;;;;;;;39.45;23.30;;;;;;;2.49;91.93;99462.06;5053610;28;20061;-76
2023/03/04 07:32:33;;;;;;;38.33;21.48;;;;;;;2.66;92.13;99493.47;5053411;28;20032;-76
2023/03/04 07:34:58;;;;;;;35.10;21.52;;;;;;;2.77;92.19;99495.00;5053507;28;20035;-76
2023/03/04 07:37:24;;;;;;;40.53;22.65;;;;;;;2.79;92.30;99488.97;5052958;28;20103;-76
2023/03/04 07:39:49;;;;;;;43.20;20.75;;;;;;;2.72;92.56;99477.94;5052950;28;20025;-76
2023/03/04 07:42:14;;;;;;;38.60;20.63;;;;;;;2.69;92.91;99474.56;5053076;28;20029;-76
2023/03/04 07:44:40;;;;;;;35.40;21.15;;;;;;;2.66;92.71;99462.63;5053332;28;20032;-76
2023/03/04 07:47:05;;;;;;;33.20;18.63;;;;;;;2.85;92.77;99488.84;5053113;28;20033;-76
2023/03/04 07:49:30;;;;;;;30.85;18.48;;;;;;;2.81;92.92;99484.63;5052710;28;20381;-76
2023/03/04 07:51:55;;;;;;;39.65;20.35;;;;;;;2.85;93.26;99486.28;5052984;28;20496;-76
2023/03/04 07:54:21;;;;;;;33.25;18.75;;;;;;;2.78;93.45;99468.41;5052789;28;20048;-76
2023/03/04 07:56:46;;;;;;;30.05;18.30;;;;;;;2.85;93.63;99481.13;5052884;28;20025;-76
2023/03/04 07:59:11;;;;;;;29.02;17.20;;;;;;;2.85;93.97;99483.72;5052817;28;20425;-76
2023/03/04 08:01:37;;;;;;;31.92;18.63;;;;;;;2.72;93.89;99454.78;5053289;28;20577;-76
2023/03/04 08:04:05;;;;;;;37.00;20.42;;;;;;;2.83;94.23;99461.47;5053139;28;20127;-76
2023/03/04 08:06:31;;;;;;;33.22;17.40;;;;;;;2.85;93.92;99442.56;5042932;28;20029;-76
2023/03/04 08:08:59;;;;;;;30.65;17.15;;;;;;;2.90;94.09;99458.75;5032289;28;20116;-76
2023/03/04 08:11:25;;;;;;;31.95;17.73;;;;;;;2.84;93.91;99435.72;5032563;28;20022;-76
2023/03/04 08:13:53;;;;;;;33.10;18.05;;;;;;;2.86;94.31;99448.53;5032943;28;20033;-76
2023/03/04 08:16:19;;;;;;;31.92;16.83;;;;;;;3.00;94.44;99459.44;5032243;28;20473;-76
2023/03/04 08:18:47;;;;;;;26.27;15.98;;;;;;;2.88;94.34;99433.94;5032926;28;20477;-76
2023/03/04 08:21:13;;;;;;;27.83;17.52;;;;;;;2.97;94.42;99450.03;5031151;28;20397;-76
2023/03/04 08:23:41;;;;;;;26.55;16.35;;;;;;;3.03;94.43;99449.06;5032611;28;20053;-76
2023/03/04 08:26:32;;;;;;;26.85;16.42;;;;;;;3.18;94.00;99456.50;5032643;28;20045;-76
2023/03/04 08:29:01;;;;;;;31.67;16.77;;;;;;;3.17;93.69;99438.53;5032623;28;20548;-76
2023/03/04 08:31:26;;;;;;;33.92;20.30;;;;;;;3.19;93.60;99429.88;5032313;28;20384;-76
2023/03/04 08:33:51;;;;;;;37.25;21.90;;;;;;;3.20;93.52;99434.16;5032573;28;20104;-76
2023/03/04 08:36:17;;;;;;;29.90;17.83;;;;;;;3.06;93.41;99407.00;5032066;28;20036;-76
2023/03/04 08:38:43;;;;;;;30.42;16.42;;;;;;;3.22;93.33;99432.41;5032553;28;20033;-76
2023/03/04 08:41:09;;;;;;;28.15;17.75;;;;;;;3.23;93.13;99428.94;5032484;28;20072;-76
2023/03/04 08:43:34;;;;;;;30.85;16.60;;;;;;;3.25;93.08;99426.34;5032031;28;20025;-76
2023/03/04 08:46:00;;;;;;;39.97;20.23;;;;;;;3.34;93.27;99445.91;5032250;28;20048;-76
2023/03/04 08:48:26;;;;;;;33.28;18.65;;;;;;;3.10;93.33;99401.75;5031966;28;20103;-76
2023/03/04 08:50:51;;;;;;;37.83;22.17;;;;;;;3.39;93.23;99446.66;5032008;28;20029;-76
2023/03/04 08:53:18;;;;;;;35.35;23.92;;;;;;;3.30;93.22;99427.09;5031826;28;20033;-76
2023/03/04 08:55:44;;;;;;;30.05;19.50;;;;;;;3.42;93.76;99449.19;5035872;28;20361;-76
2023/03/04 08:58:10;;;;;;;29.80;18.40;;;;;;;3.48;93.50;99442.16;5052342;28;20028;-76
2023/03/04 09:00:39;;;;;;;30.30;19.20;;;;;;;3.57;93.10;99455.72;5051759;28;20025;-76
2023/03/04 09:03:05;;;;;;;33.30;20.27;;;;;;;3.58;93.37;99444.53;5051942;28;20029;-77
2023/03/04 09:05:31;;;;;;;30.33;18.77;;;;;;;3.65;93.33;99440.94;5051537;28;20032;-76
2023/03/04 09:07:57;;;;;;;33.97;21.88;;;;;;;3.57;92.73;99430.81;5049347;28;20083;-76
2023/03/04 09:10:23;;;;;;;38.05;19.98;;;;;;;3.67;92.39;99449.50;5036559;28;20101;-76
2023/03/04 09:12:48;;;;;;;39.95;22.83;;;;;;;3.65;92.66;99444.38;5031262;28;20183;-77
2023/03/04 09:15:14;;;;;;;34.38;19.63;;;;;;;3.70;92.46;99450.25;5033171;28;20487;-76
2023/03/04 09:17:40;;;;;;;46.35;24.00;;;;;;;3.43;92.76;99402.78;5031455;28;20578;-76
2023/03/04 09:20:09;;;;;;;37.33;21.38;;;;;;;3.77;92.93;99434.69;5031868;28;20034;-76
2023/03/04 09:22:35;;;;;;;35.63;20.00;;;;;;;3.79;92.58;99436.31;5035671;28;20056;-76
2023/03/04 09:25:01;;;;;;;26.90;18.88;;;;;;;3.82;92.69;99449.16;5035321;28;20053;-76
2023/03/04 09:27:26;;;;;;;39.65;22.75;;;;;;;3.69;92.78;99422.81;5035384;28;20032;-76
2023/03/04 09:29:51;;;;;;;45.08;24.67;;;;;;;3.74;93.02;99431.28;5043888;28;20025;-76
2023/03/04 09:32:17;;;;;;;37.63;21.67;;;;;;;3.81;93.16;99423.44;5038697;28;20107;-76
2023/03/04 09:34:42;;;;;;;42.17;24.27;;;;;;;3.84;94.03;99431.94;5055275;28;20033;-77
2023/03/04 09:37:07;;;;;;;35.33;20.40;;;;;;;3.91;94.54;99437.78;5035978;28;20029;-76
2023/03/04 09:39:33;;;;;;;31.17;19.73;;;;;;;3.92;94.37;99448.06;5034963;28;20040;-76
2023/03/04 09:42:00;;;;;;;31.45;20.40;;;;;;;3.83;95.05;99417.34;5035104;28;20025;-76
2023/03/04 09:44:44;;;;;;;35.72;25.35;;;;;;;3.82;95.61;99415.66;5034846;28;20037;-76
2023/03/04 09:47:15;;;;;;;38.55;21.38;;;;;;;4.08;95.88;99435.66;5034818;28;20441;-76
2023/03/04 09:49:44;;;;;;;46.17;23.50;;;;;;;4.00;95.85;99420.41;5035382;28;20021;-76
2023/03/04 09:52:34;;;;;;;41.72;24.42;;;;;;;4.11;95.62;99427.84;5034875;28;20469;-76
2023/03/04 09:55:20;;;;;;;43.00;26.45;;;;;;;4.22;96.10;99432.78;5034783;28;20040;-76
2023/03/04 09:58:14;;;;;;;39.00;23.58;;;;;;;4.29;96.38;99420.56;5034449;28;20036;-76
2023/03/04 10:00:44;;;;;;;37.47;22.63;;;;;;;4.42;96.47;99417.63;5034673;28;20060;-77
2023/03/04 10:03:23;;;;;;;33.28;21.30;;;;;;;4.52;95.58;99420.00;5034518;28;20022;-77
2023/03/04 10:06:03;;;;;;;32.28;20.45;;;;;;;4.55;95.71;99409.59;5034559;28;20025;-77
2023/03/04 10:09:01;;;;;;;33.42;20.50;;;;;;;4.66;95.26;99412.75;5034534;28;20377;-77
2023/03/04 10:11:33;;;;;;;30.20;20.60;;;;;;;4.63;95.12;99392.16;5034253;28;20065;-77
2023/03/04 10:14:21;;;;;;;31.58;20.50;;;;;;;4.85;94.97;99407.94;5034323;28;20024;-77
2023/03/04 10:17:01;;;;;;;34.95;18.27;;;;;;;4.84;94.39;99395.91;5012204;28;20038;-77
2023/03/04 10:19:36;;;;;;;28.88;17.95;;;;;;;4.88;93.55;99392.34;5011835;28;20040;-77
2023/03/04 10:22:16;;;;;;;21.27;15.45;;;;;;;4.90;93.53;99396.59;5012080;28;20038;-77
2023/03/04 10:24:41;;;;;;;21.77;13.25;;;;;;;4.85;93.08;99385.56;5011738;28;20046;-77
2023/03/04 10:27:12;;;;;;;22.58;15.20;;;;;;;4.80;92.68;99376.25;5012084;28;20041;-77
2023/03/04 10:29:38;;;;;;;25.55;17.90;;;;;;;4.72;92.91;99377.31;5011646;28;20038;-77
2023/03/04 10:32:04;;;;;;;40.28;23.75;;;;;;;4.68;93.30;99364.53;5011483;28;20036;-77
2023/03/04 10:34:29;;;;;;;28.65;17.55;;;;;;;4.71;93.38;99374.75;5011901;28;20604;-77
2023/03/04 10:36:57;;;;;;;26.58;17.38;;;;;;;4.78;93.31;99391.78;5012141;28;20030;-77
2023/03/04 10:39:37;;;;;;;23.90;15.38;;;;;;;4.83;92.80;99391.66;5011499;28;20112;-77
2023/03/04 10:42:25;;;;;;;25.88;18.08;;;;;;;4.85;92.63;99392.47;5011919;28;20029;-77
2023/03/04 10:44:54;;;;;;;22.25;16.52;;;;;;;4.88;92.87;99387.19;5011931;28;20034;-77
2023/03/04 10:47:23;;;;;;;20.73;12.70;;;;;;;4.82;92.40;99364.16;5011336;28;20044;-77
2023/03/04 10:49:54;;;;;;;20.77;14.68;;;;;;;4.97;92.09;99377.50;5011492;28;20041;-77
2023/03/04 10:52:27;;;;;;;22.58;15.77;;;;;;;4.73;92.25;99360.09;5011279;28;20034;-77
2023/03/04 10:54:55;;;;;;;25.35;15.52;;;;;;;4.87;92.38;99372.63;5032274;28;20509;-77
2023/03/04 10:57:28;;;;;;;25.85;18.35;;;;;;;4.93;92.52;99378.47;5033515;28;20026;-75
2023/03/04 10:59:58;;;;;;;21.88;14.48;;;;;;;5.04;92.10;99370.41;5033645;28;20040;-76
2023/03/04 11:02:34;;;;;;;19.48;11.73;;;;;;;4.99;91.24;99351.63;5032063;28;20132;-76
2023/03/04 11:05:24;;;;;;;21.42;13.05;;;;;;;5.26;90.66;99374.03;5033783;28;20036;-75
2023/03/04 11:07:54;;;;;;;19.67;11.43;;;;;;;5.27;90.13;99351.69;5033669;28;20021;-75
2023/03/04 11:10:23;;;;;;;17.67;11.85;;;;;;;5.38;89.66;99369.41;5033200;28;20521;-76
2023/03/04 11:12:55;;;;;;;21.20;12.68;;;;;;;5.28;89.47;99345.63;5033284;28;20041;-76
2023/03/04 11:15:26;;;;;;;19.67;12.02;;;;;;;5.25;89.99;99318.13;5033028;28;20056;-75
2023/03/04 11:18:09;;;;;;;19.02;12.77;;;;;;;5.50;89.13;99345.78;5033617;28;20022;-75
2023/03/04 11:20:45;;;;;;;25.15;15.52;;;;;;;5.52;88.89;99346.63;5039185;28;20465;-75
2023/03/04 11:23:33;;;;;;;32.88;19.38;;;;;;;5.65;89.06;99368.59;5039288;28;20029;-75
2023/03/04 11:26:12;;;;;;;21.10;14.40;;;;;;;5.58;88.13;99337.81;5033525;28;20061;-75